Time;durP1;ratioP1;P1;durP2;ratioP2;P2;SDS_P1;SDS_P2;PMS_P1;PMS_P2;Temp;Humidity;BMP_temperature;BMP_pressure;BME280_temperature;BME280_humidity;BME280_pressure;Samples;Min_cycle;Max_cycle;Signal;HPM_P1;HPM_P2
2023/04/03 00:01:28;;;;;;;0.50;0.40;;;;;;;21.67;21.15;101919.31;4513783;28;20038;-57
2023/04/03 00:03:41;;;;;;;0.43;0.40;;;;;;;21.67;21.43;101922.19;4530115;28;20162;-57
2023/04/03 00:05:51;;;;;;;0.52;0.40;;;;;;;21.64;21.35;101920.00;4529527;28;20048;-57
2023/04/03 00:08:02;;;;;;;0.32;0.32;;;;;;;21.61;21.03;101914.91;4530453;28;20024;-56
2023/04/03 00:10:13;;;;;;;0.30;0.30;;;;;;;21.67;21.28;101927.94;4528419;28;20049;-58
2023/04/03 00:12:24;;;;;;;0.45;0.35;;;;;;;21.66;21.17;101929.09;4530484;28;20034;-56
2023/04/03 00:14:34;;;;;;;0.60;0.45;;;;;;;21.65;21.22;101930.31;4530843;28;20037;-56
2023/04/03 00:16:44;;;;;;;0.35;0.35;;;;;;;21.65;21.16;101923.69;4512921;28;20394;-57
2023/04/03 00:18:55;;;;;;;0.50;0.40;;;;;;;21.62;21.22;101919.50;4529801;28;20349;-56
2023/04/03 00:21:07;;;;;;;0.73;0.40;;;;;;;21.63;21.21;101918.31;4512634;28;20034;-57
2023/04/03 00:23:17;;;;;;;0.75;0.30;;;;;;;21.60;21.07;101913.25;4528700;28;20033;-57
2023/04/03 00:25:28;;;;;;;0.55;0.47;;;;;;;21.64;21.22;101924.91;4530293;28;20504;-56
2023/04/03 00:27:40;;;;;;;0.32;0.30;;;;;;;21.66;21.17;101934.84;4529334;28;20426;-56
2023/04/03 00:29:50;;;;;;;0.47;0.40;;;;;;;21.65;20.92;101927.44;4530029;28;20031;-56
2023/04/03 00:32:00;;;;;;;0.47;0.40;;;;;;;21.62;21.29;101922.38;4529540;28;20962;-56
2023/04/03 00:34:11;;;;;;;0.47;0.40;;;;;;;21.65;20.94;101927.44;4529150;28;20037;-56
2023/04/03 00:36:21;;;;;;;0.80;0.47;;;;;;;21.63;20.87;101924.03;4530162;28;20088;-57
2023/04/03 00:38:32;;;;;;;0.40;0.40;;;;;;;21.60;21.22;101921.88;4511653;28;20030;-57
2023/04/03 00:40:46;;;;;;;0.30;0.30;;;;;;;21.63;20.89;101935.53;4528302;28;20123;-56
2023/04/03 00:43:09;;;;;;;0.40;0.40;;;;;;;21.60;21.34;101932.50;4528866;28;20576;-56
2023/04/03 00:45:43;;;;;;;0.40;0.30;;;;;;;21.60;20.98;101941.13;4528757;28;20060;-57
2023/04/03 00:47:55;;;;;;;0.30;0.30;;;;;;;21.62;20.99;101933.88;4529967;28;20040;-57
2023/04/03 00:50:06;;;;;;;0.50;0.47;;;;;;;21.60;21.17;101935.38;4529214;28;20119;-56
2023/04/03 00:52:21;;;;;;;0.40;0.40;;;;;;;21.61;21.14;101942.84;4531092;28;20034;-56
2023/04/03 00:54:31;;;;;;;0.32;0.32;;;;;;;21.57;20.95;101951.28;4512623;28;20042;-57
2023/04/03 00:56:43;;;;;;;0.90;0.50;;;;;;;21.58;20.99;101943.50;4519519;28;20029;-56
2023/04/03 00:59:01;;;;;;;0.85;0.40;;;;;;;21.59;20.72;101946.03;4513762;28;20038;-56
2023/04/03 01:01:18;;;;;;;0.65;0.40;;;;;;;21.55;20.80;101945.03;4512403;28;20033;-56
2023/04/03 01:03:31;;;;;;;0.43;0.40;;;;;;;21.56;20.86;101949.59;4531186;28;20642;-56
2023/04/03 01:05:42;;;;;;;1.02;0.40;;;;;;;21.45;20.97;101925.28;4513864;28;20038;-56
2023/04/03 01:07:52;;;;;;;0.30;0.30;;;;;;;21.57;20.83;101945.53;4530746;28;20037;-56
2023/04/03 01:10:07;;;;;;;0.80;0.40;;;;;;;21.53;20.74;101941.63;4529466;28;20033;-56
2023/04/03 01:12:21;;;;;;;0.70;0.50;;;;;;;21.56;21.05;101946.72;4511153;28;20052;-56
2023/04/03 01:14:32;;;;;;;0.50;0.30;;;;;;;21.51;21.01;101938.28;4530782;28;20114;-56
2023/04/03 01:16:42;;;;;;;0.77;0.30;;;;;;;21.56;21.05;101945.88;4530535;28;20086;-56
2023/04/03 01:18:53;;;;;;;0.30;0.30;;;;;;;21.55;20.92;101939.28;4521149;28;20033;-56
2023/04/03 01:21:29;;;;;;;0.70;0.50;;;;;;;21.54;20.79;101943.34;4527036;28;20030;-57
2023/04/03 01:24:00;;;;;;;0.50;0.30;;;;;;;21.56;21.00;101951.63;4509292;28;20046;-56
2023/04/03 01:26:11;;;;;;;0.43;0.35;;;;;;;21.41;20.99;101930.03;4531903;28;20037;-56
2023/04/03 01:28:31;;;;;;;0.60;0.40;;;;;;;21.54;20.85;101943.34;4531079;28;20036;-56
2023/04/03 01:31:00;;;;;;;0.35;0.35;;;;;;;21.54;21.03;101949.09;4529490;28;20584;-56
2023/04/03 01:33:10;;;;;;;1.13;0.47;;;;;;;21.54;20.69;101949.09;4505318;28;20044;-57
2023/04/03 01:35:21;;;;;;;0.52;0.40;;;;;;;21.53;20.86;101952.31;4516044;28;20537;-56
2023/04/03 01:37:31;;;;;;;0.50;0.30;;;;;;;21.40;20.93;101925.47;4519144;28;20041;-56
2023/04/03 01:39:48;;;;;;;0.68;0.40;;;;;;;21.52;21.02;101945.72;4513523;28;20041;-56
2023/04/03 01:41:59;;;;;;;0.45;0.40;;;;;;;21.50;20.81;101944.38;4513894;28;20888;-56
2023/04/03 01:44:16;;;;;;;0.60;0.45;;;;;;;21.49;20.64;101943.53;4529318;28;20168;-56
2023/04/03 01:46:27;;;;;;;0.93;0.50;;;;;;;21.53;20.58;101953.13;4488799;28;20178;-56
2023/04/03 01:48:37;;;;;;;0.80;0.40;;;;;;;21.51;20.73;101955.53;4530050;28;20045;-56
2023/04/03 01:50:48;;;;;;;0.70;0.50;;;;;;;21.50;21.08;101948.06;4503273;28;20040;-56
2023/04/03 01:52:58;;;;;;;0.30;0.30;;;;;;;21.47;20.84;101948.75;4532279;28;20489;-56
2023/04/03 01:55:09;;;;;;;0.80;0.50;;;;;;;21.48;20.72;101958.22;4531967;28;20144;-56
2023/04/03 01:57:20;;;;;;;1.20;0.50;;;;;;;21.51;20.73;101966.16;4532032;28;20450;-56
2023/04/03 01:59:30;;;;;;;0.60;0.32;;;;;;;21.48;21.05;101950.47;4515735;28;20029;-56
2023/04/03 02:01:41;;;;;;;0.45;0.30;;;;;;;21.48;20.94;101950.47;4525108;28;20067;-57
2023/04/03 02:03:51;;;;;;;0.35;0.30;;;;;;;21.48;20.75;101952.47;4535065;28;20606;-57
2023/04/03 02:06:02;;;;;;;0.57;0.38;;;;;;;21.50;20.78;101964.50;4531821;28;20124;-56
2023/04/03 02:08:13;;;;;;;0.75;0.40;;;;;;;21.46;20.67;101963.47;4530195;28;20021;-57
2023/04/03 02:10:24;;;;;;;0.40;0.38;;;;;;;21.43;20.75;101947.75;4534320;28;20043;-56
2023/04/03 02:12:34;;;;;;;0.50;0.40;;;;;;;21.49;20.72;101969.38;4521936;28;20087;-56
2023/04/03 02:14:45;;;;;;;0.50;0.30;;;;;;;21.48;21.18;101961.97;4515579;28;20607;-57
2023/04/03 02:16:56;;;;;;;1.10;0.55;;;;;;;21.44;20.78;101948.59;4532358;28;20051;-56
2023/04/03 02:19:06;;;;;;;1.05;0.40;;;;;;;21.26;20.70;101924.81;4533108;28;20098;-56
2023/04/03 02:21:17;;;;;;;0.60;0.40;;;;;;;21.45;21.12;101959.78;4531544;28;20040;-57
2023/04/03 02:23:27;;;;;;;0.50;0.40;;;;;;;21.47;20.87;101960.25;4514995;28;20069;-57
2023/04/03 02:25:38;;;;;;;0.65;0.52;;;;;;;21.47;20.73;101966.00;4534709;28;20497;-57
2023/04/03 02:27:48;;;;;;;0.77;0.60;;;;;;;21.46;20.69;101958.56;4532028;28;20116;-56
2023/04/03 02:29:58;;;;;;;0.77;0.40;;;;;;;21.44;20.60;101960.06;4507239;28;20506;-56
2023/04/03 02:32:09;;;;;;;0.85;0.40;;;;;;;21.44;20.69;101960.94;4533677;28;20071;-58
2023/04/03 02:34:21;;;;;;;0.75;0.40;;;;;;;21.45;21.07;101965.50;4514622;28;20128;-56
2023/04/03 02:36:32;;;;;;;0.40;0.40;;;;;;;21.46;20.81;101969.22;4530731;28;20144;-57
2023/04/03 02:38:45;;;;;;;0.98;0.45;;;;;;;21.44;20.74;101962.94;4531501;28;20029;-57
2023/04/03 02:41:21;;;;;;;0.40;0.40;;;;;;;21.46;20.98;101966.34;4532970;28;20855;-57
2023/04/03 02:43:33;;;;;;;0.90;0.50;;;;;;;21.42;20.92;101963.28;4506643;28;20109;-56
2023/04/03 02:45:44;;;;;;;0.30;0.30;;;;;;;21.45;20.84;101970.41;4532976;28;20040;-57
2023/04/03 02:47:55;;;;;;;0.30;0.30;;;;;;;21.45;21.03;101974.13;4530399;28;20086;-57
2023/04/03 02:50:05;;;;;;;0.30;0.30;;;;;;;21.42;20.61;101974.78;4532453;28;20041;-57
2023/04/03 02:52:16;;;;;;;1.05;0.50;;;;;;;21.46;20.87;101983.56;4514582;28;20030;-57
2023/04/03 02:54:30;;;;;;;1.10;0.50;;;;;;;21.41;20.96;101970.22;4533499;28;20080;-57
2023/04/03 02:56:44;;;;;;;0.60;0.50;;;;;;;21.41;20.68;101969.38;4515998;28;20056;-56
2023/04/03 02:58:55;;;;;;;0.55;0.40;;;;;;;21.44;20.77;101975.28;4530360;28;20132;-57
2023/04/03 03:01:06;;;;;;;0.85;0.55;;;;;;;21.35;20.99;101968.72;4529389;28;20657;-57
2023/04/03 03:03:16;;;;;;;0.90;0.43;;;;;;;21.42;21.07;101974.78;4529238;28;20142;-57
2023/04/03 03:05:27;;;;;;;0.40;0.40;;;;;;;21.44;21.22;101978.16;4519752;28;20184;-57
2023/04/03 03:07:38;;;;;;;0.45;0.45;;;;;;;21.42;21.34;101969.03;4519860;28;20580;-57
2023/04/03 03:09:48;;;;;;;0.50;0.40;;;;;;;21.41;20.94;101967.38;4529895;28;20032;-56
2023/04/03 03:11:59;;;;;;;0.85;0.40;;;;;;;21.41;20.73;101961.63;4533584;28;20036;-57
2023/04/03 03:14:09;;;;;;;0.30;0.30;;;;;;;21.42;20.76;101971.91;4530280;28;20033;-58
2023/04/03 03:16:20;;;;;;;0.50;0.50;;;;;;;21.42;20.81;101968.22;4513100;28;20037;-57
2023/04/03 03:18:30;;;;;;;0.98;0.40;;;;;;;21.43;20.59;101970.75;4530759;28;20022;-57
2023/04/03 03:20:41;;;;;;;0.60;0.40;;;;;;;21.43;20.62;101975.63;4533128;28;20553;-57
2023/04/03 03:22:51;;;;;;;0.57;0.30;;;;;;;21.43;20.71;101982.22;4516373;28;20041;-57
2023/04/03 03:25:03;;;;;;;0.80;0.47;;;;;;;21.42;21.03;101980.53;4514781;28;20133;-57
2023/04/03 03:27:15;;;;;;;0.75;0.45;;;;;;;21.42;20.56;101974.78;4533716;28;20583;-57
2023/04/03 03:29:26;;;;;;;0.85;0.40;;;;;;;21.39;20.76;101972.59;4529424;28;20040;-58
2023/04/03 03:31:37;;;;;;;0.63;0.40;;;;;;;21.40;20.74;101977.19;4531460;28;20017;-56
2023/04/03 03:33:47;;;;;;;0.47;0.40;;;;;;;21.40;20.59;101980.03;4528996;28;20037;-57
2023/04/03 03:35:58;;;;;;;1.60;0.50;;;;;;;21.41;20.76;101978.84;4531335;28;20103;-57
2023/04/03 03:38:09;;;;;;;0.60;0.40;;;;;;;21.35;21.08;101968.72;4532619;28;20037;-57
2023/04/03 03:40:19;;;;;;;0.70;0.47;;;;;;;21.33;20.71;101964.50;4532987;28;20100;-58
2023/04/03 03:42:30;;;;;;;0.43;0.43;;;;;;;21.40;20.59;101982.91;4531630;28;20115;-57
2023/04/03 03:44:40;;;;;;;0.77;0.50;;;;;;;21.35;20.78;101968.72;4532337;28;20044;-56
2023/04/03 03:46:51;;;;;;;0.47;0.40;;;;;;;21.38;20.54;101982.41;4532708;28;20040;-57
2023/04/03 03:49:01;;;;;;;0.40;0.40;;;;;;;21.38;20.72;101985.28;4522195;28;20024;-57
2023/04/03 03:51:12;;;;;;;0.40;0.40;;;;;;;21.37;20.42;101980.72;4531988;28;20029;-56
2023/04/03 03:53:23;;;;;;;0.57;0.40;;;;;;;21.37;20.53;101986.47;4530384;28;20725;-56
2023/04/03 03:55:36;;;;;;;0.70;0.45;;;;;;;21.37;21.01;101980.72;4533630;28;20040;-57
2023/04/03 03:57:47;;;;;;;0.45;0.40;;;;;;;21.36;20.90;101984.75;4530276;28;20021;-56
2023/04/03 03:59:58;;;;;;;0.70;0.50;;;;;;;21.34;20.75;101978.53;4519762;28;20127;-56
2023/04/03 04:02:09;;;;;;;0.88;0.60;;;;;;;21.22;20.80;101966.03;4529637;28;20034;-57
2023/04/03 04:04:19;;;;;;;0.65;0.50;;;;;;;21.17;20.99;101961.28;4530186;28;20044;-56
2023/04/03 04:06:30;;;;;;;0.63;0.50;;;;;;;21.36;20.52;101999.13;4514036;28;20107;-57
2023/04/03 04:08:44;;;;;;;0.43;0.40;;;;;;;21.36;20.91;101998.31;4528031;28;20107;-57
2023/04/03 04:10:56;;;;;;;1.33;0.50;;;;;;;21.34;20.54;101992.91;4513028;28;20879;-56
2023/04/03 04:13:07;;;;;;;0.60;0.30;;;;;;;21.36;20.74;101993.38;4532019;28;20105;-56
2023/04/03 04:15:18;;;;;;;0.73;0.43;;;;;;;21.33;20.41;101994.06;4516979;28;20034;-56
2023/04/03 04:17:28;;;;;;;0.75;0.50;;;;;;;21.32;20.59;101986.63;4513834;28;20073;-56
2023/04/03 04:19:40;;;;;;;1.23;0.60;;;;;;;21.37;20.74;101999.97;4532144;28;20037;-56
2023/04/03 04:21:51;;;;;;;0.50;0.40;;;;;;;21.35;20.67;101997.44;4511728;28;20037;-56
2023/04/03 04:24:05;;;;;;;0.75;0.40;;;;;;;21.35;20.37;101997.44;4533372;28;20028;-58
2023/04/03 04:26:15;;;;;;;0.60;0.40;;;;;;;21.36;20.84;101995.44;4531818;28;20124;-57
2023/04/03 04:28:26;;;;;;;1.15;0.52;;;;;;;21.35;20.57;101999.47;4512853;28;20145;-56
2023/04/03 04:30:39;;;;;;;0.40;0.40;;;;;;;21.35;20.48;102008.94;4529249;28;20040;-57
2023/04/03 04:32:50;;;;;;;1.65;0.57;;;;;;;21.29;20.41;101995.94;4515354;28;20029;-56
2023/04/03 04:35:00;;;;;;;0.55;0.50;;;;;;;21.32;20.61;102003.88;4515627;28;20581;-56
2023/04/03 04:37:13;;;;;;;0.50;0.47;;;;;;;21.33;20.41;102010.44;4528593;28;20028;-59
2023/04/03 04:39:23;;;;;;;1.45;0.50;;;;;;;21.32;20.24;102014.50;4513985;28;21663;-57
2023/04/03 04:41:35;;;;;;;0.55;0.50;;;;;;;21.32;20.77;102015.34;4513355;28;20166;-57
2023/04/03 04:43:51;;;;;;;0.90;0.50;;;;;;;21.34;20.26;102026.50;4531560;28;20041;-58
2023/04/03 04:46:07;;;;;;;0.60;0.40;;;;;;;21.35;20.37;102026.16;4510826;28;20291;-56
2023/04/03 04:48:22;;;;;;;0.55;0.40;;;;;;;21.32;20.34;102021.09;4505695;28;20171;-57
2023/04/03 04:50:33;;;;;;;0.95;0.50;;;;;;;21.32;20.31;102026.84;4531820;28;20039;-57
2023/04/03 04:52:44;;;;;;;0.75;0.50;;;;;;;21.31;20.23;102022.25;4531207;28;20029;-57
2023/04/03 04:54:54;;;;;;;1.02;0.50;;;;;;;21.34;20.52;102033.09;4530142;28;20078;-58
2023/04/03 04:57:05;;;;;;;1.23;0.40;;;;;;;21.34;19.96;102032.25;4525648;28;20041;-57
2023/04/03 04:59:15;;;;;;;1.13;0.50;;;;;;;21.35;20.11;102037.66;4533317;28;20037;-57
2023/04/03 05:01:26;;;;;;;0.57;0.40;;;;;;;21.30;20.19;102032.06;4520725;28;20038;-56
2023/04/03 05:03:47;;;;;;;0.50;0.40;;;;;;;21.29;20.41;102020.94;4528966;28;20107;-56
2023/04/03 05:05:59;;;;;;;0.82;0.50;;;;;;;21.31;20.08;102033.75;4514824;28;20030;-56
2023/04/03 05:08:09;;;;;;;0.50;0.50;;;;;;;21.26;20.19;102022.47;4503930;28;20045;-57
2023/04/03 05:10:22;;;;;;;0.60;0.50;;;;;;;21.32;20.15;102032.59;4511055;28;20091;-57
2023/04/03 05:12:33;;;;;;;0.73;0.47;;;;;;;21.35;20.04;102046.28;4528736;28;20548;-57
2023/04/03 05:14:46;;;;;;;0.77;0.50;;;;;;;21.33;20.35;102037.16;4510580;28;20571;-57
2023/04/03 05:16:57;;;;;;;0.52;0.40;;;;;;;21.34;20.16;102038.84;4514938;28;20045;-56
2023/04/03 05:19:12;;;;;;;0.73;0.50;;;;;;;21.36;20.11;102047.94;4502435;28;20036;-57
2023/04/03 05:21:25;;;;;;;0.68;0.40;;;;;;;21.29;19.87;102033.28;4528490;28;20092;-56
2023/04/03 05:23:36;;;;;;;1.40;0.40;;;;;;;21.38;20.39;102050.47;4525538;28;20060;-56
2023/04/03 05:25:48;;;;;;;0.43;0.40;;;;;;;21.33;20.28;102047.78;4490372;28;20058;-56
2023/04/03 05:27:59;;;;;;;0.50;0.40;;;;;;;21.30;20.16;102043.56;4531446;28;20033;-56
2023/04/03 05:30:11;;;;;;;0.40;0.40;;;;;;;21.34;19.96;102052.34;4531699;28;20025;-55
2023/04/03 05:32:24;;;;;;;0.50;0.40;;;;;;;21.33;20.49;102050.66;4530534;28;21132;-57
2023/04/03 05:34:44;;;;;;;0.40;0.40;;;;;;;21.35;20.26;102056.91;4529901;28;20034;-56
2023/04/03 05:36:55;;;;;;;0.60;0.52;;;;;;;21.32;20.64;102055.56;4534893;28;20034;-56
2023/04/03 05:39:06;;;;;;;0.60;0.50;;;;;;;21.30;20.34;102054.19;4534027;28;20041;-55
2023/04/03 05:41:23;;;;;;;0.60;0.43;;;;;;;21.34;20.35;102070.44;4531932;28;20174;-56
2023/04/03 05:43:37;;;;;;;1.08;0.50;;;;;;;21.34;20.46;102072.47;4515954;28;20593;-56
2023/04/03 05:45:48;;;;;;;0.43;0.40;;;;;;;21.32;20.05;102071.94;4534388;28;20029;-56
2023/04/03 05:47:59;;;;;;;0.55;0.55;;;;;;;21.28;19.94;102073.81;4531932;28;20033;-57
2023/04/03 05:50:10;;;;;;;0.40;0.40;;;;;;;21.31;20.11;102079.72;4534097;28;20029;-55
2023/04/03 05:52:26;;;;;;;0.70;0.45;;;;;;;21.33;20.40;102080.22;4515382;28;20148;-56
2023/04/03 05:54:37;;;;;;;0.85;0.60;;;;;;;21.32;20.17;102084.28;4516476;28;20037;-56
2023/04/03 05:56:55;;;;;;;0.80;0.50;;;;;;;21.26;20.21;102073.28;4532684;28;21469;-57
2023/04/03 05:59:07;;;;;;;0.40;0.40;;;;;;;21.31;20.34;102088.31;4533883;28;20040;-56
2023/04/03 06:01:18;;;;;;;0.65;0.50;;;;;;;21.32;20.03;102095.78;4513615;28;20042;-56
2023/04/03 06:03:29;;;;;;;0.88;0.47;;;;;;;21.30;20.49;102092.38;4518329;28;20141;-57
2023/04/03 06:05:40;;;;;;;0.80;0.40;;;;;;;21.31;20.10;102093.25;4533377;28;20390;-57
2023/04/03 06:07:50;;;;;;;0.57;0.40;;;;;;;21.31;20.24;102093.25;4531746;28;20061;-57
2023/04/03 06:10:02;;;;;;;0.60;0.50;;;;;;;21.33;20.41;102097.47;4517388;28;20134;-57
2023/04/03 06:12:12;;;;;;;1.08;0.47;;;;;;;21.32;20.27;102095.78;4516936;28;20064;-56
2023/04/03 06:14:23;;;;;;;0.40;0.40;;;;;;;21.28;20.34;102083.25;4523791;28;20037;-57
2023/04/03 06:16:34;;;;;;;0.80;0.50;;;;;;;21.25;20.41;102086.81;4532810;28;20044;-56
2023/04/03 06:18:45;;;;;;;0.70;0.45;;;;;;;21.36;20.57;102101.69;4500393;28;20072;-54
2023/04/03 06:20:56;;;;;;;0.80;0.43;;;;;;;21.35;20.55;102105.72;4514389;28;20034;-56
2023/04/03 06:23:06;;;;;;;0.60;0.50;;;;;;;21.35;20.57;102100.00;4514985;28;20042;-55
2023/04/03 06:25:18;;;;;;;1.50;0.55;;;;;;;21.31;20.57;102099.00;4533120;28;20608;-55
2023/04/03 06:27:29;;;;;;;0.98;0.52;;;;;;;21.36;21.21;102102.53;4518312;28;20624;-57
2023/04/03 06:29:39;;;;;;;0.45;0.45;;;;;;;21.38;21.10;102117.41;4534734;28;20041;-55
2023/04/03 06:31:51;;;;;;;1.05;0.57;;;;;;;21.43;20.86;102123.00;4532483;28;20037;-55
2023/04/03 06:34:02;;;;;;;0.80;0.50;;;;;;;21.42;21.35;102118.41;4530790;28;20137;-55
2023/04/03 06:36:13;;;;;;;0.47;0.40;;;;;;;21.38;21.37;102116.53;4531085;28;20029;-55
2023/04/03 06:38:23;;;;;;;1.55;0.60;;;;;;;21.39;21.65;102119.09;4513900;28;20022;-55
2023/04/03 06:40:34;;;;;;;0.55;0.55;;;;;;;21.41;21.77;102119.59;4532714;28;20512;-55
2023/04/03 06:42:46;;;;;;;0.50;0.50;;;;;;;21.42;22.05;102127.03;4532151;28;20517;-55
2023/04/03 06:44:56;;;;;;;0.90;0.60;;;;;;;21.38;21.61;102111.66;4531142;28;20033;-55
2023/04/03 06:47:11;;;;;;;1.05;0.50;;;;;;;21.43;21.76;102119.25;4531217;28;20029;-55
2023/04/03 06:49:21;;;;;;;1.13;0.60;;;;;;;21.41;21.70;102115.88;4530253;28;20029;-55
2023/04/03 06:51:32;;;;;;;1.00;0.60;;;;;;;21.39;21.58;102124.81;4532481;28;20041;-55
2023/04/03 06:53:42;;;;;;;0.70;0.52;;;;;;;21.40;21.73;102122.81;4531584;28;20086;-55
2023/04/03 06:55:53;;;;;;;0.50;0.50;;;;;;;21.38;21.30;102122.28;4532600;28;20037;-55
2023/04/03 06:58:04;;;;;;;1.50;0.50;;;;;;;21.43;21.44;102130.75;4530752;28;20036;-55
2023/04/03 07:00:16;;;;;;;1.45;0.50;;;;;;;21.44;21.42;102139.03;4532740;28;20037;-55
2023/04/03 07:02:26;;;;;;;1.95;0.75;;;;;;;21.43;21.56;102137.34;4529531;28;20044;-55
2023/04/03 07:04:37;;;;;;;0.98;0.60;;;;;;;21.43;21.76;102133.63;4530362;28;20074;-55
2023/04/03 07:06:48;;;;;;;1.17;0.60;;;;;;;21.45;21.84;102142.75;4529777;28;20034;-55
2023/04/03 07:08:59;;;;;;;0.70;0.52;;;;;;;21.43;21.80;102145.97;4531155;28;20095;-55
2023/04/03 07:11:11;;;;;;;0.55;0.40;;;;;;;21.44;21.41;102144.78;4531439;28;20036;-55
2023/04/03 07:13:21;;;;;;;0.60;0.50;;;;;;;21.46;21.30;102148.16;4531353;28;20032;-55
2023/04/03 07:15:33;;;;;;;0.73;0.38;;;;;;;21.46;21.36;102156.78;4530082;28;20481;-55
2023/04/03 07:17:43;;;;;;;0.52;0.43;;;;;;;21.46;21.67;102153.06;4530662;28;20029;-55
2023/04/03 07:19:54;;;;;;;1.08;0.52;;;;;;;21.44;21.63;102150.53;4532296;28;20064;-55
2023/04/03 07:22:04;;;;;;;0.50;0.40;;;;;;;21.45;21.42;102149.38;4532020;28;20064;-56
2023/04/03 07:24:15;;;;;;;0.98;0.60;;;;;;;21.45;20.99;102162.88;4529915;28;20049;-55
2023/04/03 07:26:26;;;;;;;1.55;0.60;;;;;;;21.46;21.21;102159.66;4530445;28;20037;-55
2023/04/03 07:28:36;;;;;;;1.85;0.70;;;;;;;21.40;21.33;102149.53;4531493;28;20027;-56
2023/04/03 07:30:51;;;;;;;0.70;0.43;;;;;;;21.40;21.32;102154.41;4530463;28;20774;-55
2023/04/03 07:33:02;;;;;;;0.68;0.40;;;;;;;21.45;21.46;102157.13;4515084;28;20889;-56
2023/04/03 07:35:13;;;;;;;0.90;0.50;;;;;;;21.43;21.14;102166.06;4532239;28;20044;-60
2023/04/03 07:37:23;;;;;;;0.73;0.50;;;;;;;21.42;21.41;102164.38;4514112;28;20358;-56
2023/04/03 07:39:34;;;;;;;0.68;0.40;;;;;;;21.44;21.36;102173.50;4529661;28;20125;-57
2023/04/03 07:41:45;;;;;;;0.88;0.47;;;;;;;21.42;21.52;102175.84;4528950;28;20032;-59
2023/04/03 07:43:56;;;;;;;1.10;0.50;;;;;;;21.46;20.98;102182.66;4529730;28;20071;-58
2023/04/03 07:46:06;;;;;;;0.60;0.50;;;;;;;21.42;21.62;102170.13;4532026;28;20517;-56
2023/04/03 07:48:24;;;;;;;1.00;0.50;;;;;;;21.38;20.89;102171.97;4532454;28;20037;-56
2023/04/03 07:50:35;;;;;;;0.82;0.68;;;;;;;21.43;21.29;102174.69;4530789;28;20047;-56
2023/04/03 07:52:46;;;;;;;0.98;0.63;;;;;;;21.44;21.52;102179.25;4532423;28;20083;-56
2023/04/03 07:54:56;;;;;;;0.60;0.40;;;;;;;21.33;21.56;102160.66;4529820;28;20044;-55
2023/04/03 07:57:07;;;;;;;0.65;0.52;;;;;;;21.45;21.11;102186.72;4530811;28;20064;-55
2023/04/03 07:59:18;;;;;;;0.47;0.40;;;;;;;21.44;21.52;102182.13;4531843;28;20833;-56
2023/04/03 08:01:28;;;;;;;0.82;0.40;;;;;;;21.44;21.41;102179.25;4531017;28;20068;-55
2023/04/03 08:03:39;;;;;;;0.80;0.50;;;;;;;21.47;20.89;102181.44;4532341;28;20048;-55
2023/04/03 08:05:50;;;;;;;0.47;0.40;;;;;;;21.46;20.84;102178.91;4530509;28;20052;-55
2023/04/03 08:08:01;;;;;;;0.52;0.50;;;;;;;21.47;21.27;102181.44;4529550;28;20650;-55
2023/04/03 08:10:12;;;;;;;1.08;0.50;;;;;;;21.41;21.81;102173.31;4530202;28;20126;-55
2023/04/03 08:12:22;;;;;;;0.50;0.38;;;;;;;21.43;21.16;102186.19;4530862;28;20057;-54
2023/04/03 08:14:36;;;;;;;0.80;0.40;;;;;;;21.47;21.58;102189.25;4514004;28;20033;-56
2023/04/03 08:16:48;;;;;;;0.50;0.50;;;;;;;21.46;21.60;102187.53;4514707;28;20040;-55
2023/04/03 08:18:59;;;;;;;0.40;0.38;;;;;;;21.45;21.25;102189.59;4531146;28;20539;-55
2023/04/03 08:21:11;;;;;;;0.55;0.40;;;;;;;21.46;21.42;102190.41;4531491;28;21087;-55
2023/04/03 08:23:21;;;;;;;1.17;0.50;;;;;;;21.41;21.43;102184.81;4530853;28;20036;-56
2023/04/03 08:25:33;;;;;;;0.35;0.35;;;;;;;21.44;21.14;102184.13;4531478;28;20033;-55
2023/04/03 08:27:44;;;;;;;0.40;0.30;;;;;;;21.42;21.06;102184.47;4531401;28;20131;-55
2023/04/03 08:29:56;;;;;;;0.40;0.40;;;;;;;21.45;21.11;102180.09;4515166;28;20133;-54
2023/04/03 08:32:07;;;;;;;0.68;0.38;;;;;;;21.47;21.52;102186.38;4530449;28;20033;-55
2023/04/03 08:34:19;;;;;;;0.95;0.35;;;;;;;21.47;21.46;102184.31;4530437;28;21105;-55
2023/04/03 08:36:29;;;;;;;0.40;0.40;;;;;;;21.46;21.20;102176.91;4531312;28;20032;-55
2023/04/03 08:38:40;;;;;;;0.90;0.40;;;;;;;21.46;20.99;102181.78;4531794;28;20044;-55
2023/04/03 08:41:11;;;;;;;0.60;0.50;;;;;;;21.42;21.16;102170.13;4527874;28;20041;-55
2023/04/03 08:43:59;;;;;;;0.50;0.43;;;;;;;21.49;20.83;102181.97;4531564;28;20049;-55
2023/04/03 08:46:14;;;;;;;0.50;0.40;;;;;;;21.49;20.89;102181.97;4518971;28;20038;-55
2023/04/03 08:48:36;;;;;;;0.30;0.30;;;;;;;21.47;20.65;102178.56;4531624;28;20064;-55
2023/04/03 08:50:51;;;;;;;0.40;0.40;;;;;;;21.46;19.91;102174.03;4513707;28;20136;-55
2023/04/03 08:53:06;;;;;;;0.80;0.30;;;;;;;21.51;19.87;102171.00;4532174;28;20034;-55
2023/04/03 08:55:23;;;;;;;0.80;0.28;;;;;;;21.53;19.51;102176.41;4531278;28;20043;-55
2023/04/03 08:57:38;;;;;;;0.43;0.28;;;;;;;21.52;19.43;102181.28;4528253;28;20976;-56
2023/04/03 08:59:48;;;;;;;0.25;0.25;;;;;;;21.53;18.75;102173.53;4511671;28;20057;-55
2023/04/03 09:02:05;;;;;;;0.32;0.22;;;;;;;21.54;18.80;102186.69;4530043;28;20090;-55
2023/04/03 09:04:17;;;;;;;0.40;0.30;;;;;;;21.55;18.90;102174.03;4530946;28;20053;-54
2023/04/03 09:06:32;;;;;;;0.30;0.30;;;;;;;21.54;18.41;102178.94;4512077;28;20034;-55
2023/04/03 09:09:01;;;;;;;0.93;0.35;;;;;;;21.52;18.39;102168.94;4517891;28;21212;-55
2023/04/03 09:11:23;;;;;;;0.60;0.40;;;;;;;21.54;19.10;102178.94;4528655;28;20627;-55
2023/04/03 09:13:52;;;;;;;0.50;0.35;;;;;;;21.56;18.88;102170.84;4529355;28;20988;-55
2023/04/03 09:16:14;;;;;;;0.73;0.30;;;;;;;21.53;19.15;102171.47;4529228;28;21427;-54
2023/04/03 09:18:40;;;;;;;0.30;0.30;;;;;;;21.55;18.84;102172.00;4526939;28;20115;-54
2023/04/03 09:21:20;;;;;;;0.30;0.30;;;;;;;21.58;19.01;102174.19;4504867;28;20129;-55
2023/04/03 09:23:45;;;;;;;0.68;0.30;;;;;;;21.63;18.65;102171.16;4526358;28;20061;-55
2023/04/03 09:26:08;;;;;;;0.40;0.30;;;;;;;21.63;18.81;102174.03;4527904;28;20098;-56
2023/04/03 09:28:19;;;;;;;0.30;0.30;;;;;;;21.63;18.65;102170.31;4530471;28;20076;-54
2023/04/03 09:30:30;;;;;;;0.38;0.22;;;;;;;21.65;18.81;102180.31;4529078;28;20033;-55
2023/04/03 09:32:42;;;;;;;0.57;0.40;;;;;;;21.65;19.01;102167.94;4530034;28;20565;-57
2023/04/03 09:34:54;;;;;;;0.30;0.30;;;;;;;21.64;18.97;102167.13;4518816;28;20796;-55
2023/04/03 09:37:08;;;;;;;0.50;0.40;;;;;;;21.63;18.83;102165.41;4530226;28;20030;-55
2023/04/03 09:39:29;;;;;;;0.63;0.30;;;;;;;21.63;18.60;102164.56;4512492;28;20104;-57
2023/04/03 09:41:39;;;;;;;0.73;0.32;;;;;;;21.59;19.20;102161.53;4519821;28;20029;-56
2023/04/03 09:43:54;;;;;;;0.50;0.40;;;;;;;21.56;19.07;102156.47;4529522;28;20045;-55
2023/04/03 09:46:30;;;;;;;0.60;0.30;;;;;;;21.61;19.26;102167.78;4529180;28;20150;-56
2023/04/03 09:48:56;;;;;;;0.80;0.30;;;;;;;21.54;18.87;102152.22;4528296;28;20068;-56
2023/04/03 09:51:15;;;;;;;0.30;0.30;;;;;;;21.58;18.95;102168.44;4529322;28;20560;-55
2023/04/03 09:53:38;;;;;;;0.63;0.43;;;;;;;21.59;18.72;102173.03;4531179;28;20096;-57
2023/04/03 09:55:49;;;;;;;1.23;0.30;;;;;;;21.54;18.96;102152.22;4532569;28;20095;-56
2023/04/03 09:58:04;;;;;;;2.05;0.40;;;;;;;21.57;18.75;102148.69;4512337;28;20617;-56
2023/04/03 10:00:28;;;;;;;0.50;0.30;;;;;;;21.60;19.10;102142.25;4527073;28;20034;-56
2023/04/03 10:02:40;;;;;;;0.90;0.30;;;;;;;21.66;19.38;102164.75;4528916;28;20025;-56
2023/04/03 10:04:50;;;;;;;0.22;0.22;;;;;;;21.55;19.00;102145.31;4528525;28;21260;-57
2023/04/03 10:07:00;;;;;;;0.20;0.20;;;;;;;21.54;18.50;102144.47;4529280;28;20095;-55
2023/04/03 10:09:20;;;;;;;0.38;0.30;;;;;;;21.53;18.75;102137.00;4530409;28;20033;-57
2023/04/03 10:11:31;;;;;;;0.30;0.28;;;;;;;21.63;18.42;102147.31;4529564;28;20025;-56
2023/04/03 10:13:53;;;;;;;0.40;0.30;;;;;;;21.63;18.81;102142.44;4521296;28;21119;-56
2023/04/03 10:16:14;;;;;;;0.73;0.30;;;;;;;21.64;18.63;102141.28;4531683;28;20152;-57
2023/04/03 10:18:38;;;;;;;0.20;0.20;;;;;;;21.67;18.88;102143.47;4519481;28;20154;-57